sensor_id;sensor_type;location;lat;lon;timestamp;temperature;humidity
4245;DHT22;2136;48.502;9.194;2024-03-02T00:01:23;8.80;84.40
4245;DHT22;2136;48.502;9.194;2024-03-02T00:03:50;8.80;84.60
4245;DHT22;2136;48.502;9.194;2024-03-02T00:06:20;8.80;84.50
4245;DHT22;2136;48.502;9.194;2024-03-02T00:08:47;8.70;84.60
4245;DHT22;2136;48.502;9.194;2024-03-02T00:11:14;8.70;84.50
4245;DHT22;2136;48.502;9.194;2024-03-02T00:13:41;8.70;84.80
4245;DHT22;2136;48.502;9.194;2024-03-02T00:16:08;8.60;84.90
4245;DHT22;2136;48.502;9.194;2024-03-02T00:18:36;8.50;85.10
4245;DHT22;2136;48.502;9.194;2024-03-02T00:21:06;8.50;85.90
4245;DHT22;2136;48.502;9.194;2024-03-02T00:23:36;8.50;86.50
4245;DHT22;2136;48.502;9.194;2024-03-02T00:26:04;8.60;86.50
4245;DHT22;2136;48.502;9.194;2024-03-02T00:28:33;8.50;86.80
4245;DHT22;2136;48.502;9.194;2024-03-02T00:31:03;8.40;87.10
4245;DHT22;2136;48.502;9.194;2024-03-02T00:33:32;8.40;87.50
4245;DHT22;2136;48.502;9.194;2024-03-02T00:35:59;8.40;88.20
4245;DHT22;2136;48.502;9.194;2024-03-02T00:38:27;8.40;88.80
4245;DHT22;2136;48.502;9.194;2024-03-02T00:40:57;8.40;89.40
4245;DHT22;2136;48.502;9.194;2024-03-02T00:43:41;8.40;89.80
4245;DHT22;2136;48.502;9.194;2024-03-02T00:46:10;8.30;89.50
4245;DHT22;2136;48.502;9.194;2024-03-02T00:48:37;8.30;89.20
4245;DHT22;2136;48.502;9.194;2024-03-02T00:51:04;8.30;89.60
4245;DHT22;2136;48.502;9.194;2024-03-02T00:53:31;8.30;90.00
4245;DHT22;2136;48.502;9.194;2024-03-02T00:56:01;8.30;89.80
4245;DHT22;2136;48.502;9.194;2024-03-02T00:58:28;8.20;89.50
4245;DHT22;2136;48.502;9.194;2024-03-02T01:00:54;8.20;89.80
4245;DHT22;2136;48.502;9.194;2024-03-02T01:03:21;8.20;89.90
4245;DHT22;2136;48.502;9.194;2024-03-02T01:05:48;8.20;90.00
4245;DHT22;2136;48.502;9.194;2024-03-02T01:08:14;8.20;90.10
4245;DHT22;2136;48.502;9.194;2024-03-02T01:10:41;8.20;90.20
4245;DHT22;2136;48.502;9.194;2024-03-02T01:13:10;8.10;90.30
4245;DHT22;2136;48.502;9.194;2024-03-02T01:15:36;8.20;90.40
4245;DHT22;2136;48.502;9.194;2024-03-02T01:18:04;8.10;90.60
4245;DHT22;2136;48.502;9.194;2024-03-02T01:20:31;8.10;90.50
4245;DHT22;2136;48.502;9.194;2024-03-02T01:22:58;8.10;90.30
4245;DHT22;2136;48.502;9.194;2024-03-02T01:25:25;8.10;90.50
4245;DHT22;2136;48.502;9.194;2024-03-02T01:27:51;8.00;90.50
4245;DHT22;2136;48.502;9.194;2024-03-02T01:30:19;8.00;91.00
4245;DHT22;2136;48.502;9.194;2024-03-02T01:32:47;7.90;90.80
4245;DHT22;2136;48.502;9.194;2024-03-02T01:35:13;7.90;90.80
4245;DHT22;2136;48.502;9.194;2024-03-02T01:37:41;7.80;90.60
4245;DHT22;2136;48.502;9.194;2024-03-02T01:40:09;7.80;90.60
4245;DHT22;2136;48.502;9.194;2024-03-02T01:42:36;7.80;90.70
4245;DHT22;2136;48.502;9.194;2024-03-02T01:45:04;7.80;91.00
4245;DHT22;2136;48.502;9.194;2024-03-02T01:47:33;7.70;91.40
4245;DHT22;2136;48.502;9.194;2024-03-02T01:50:00;7.70;91.20
4245;DHT22;2136;48.502;9.194;2024-03-02T01:52:27;7.60;91.20
4245;DHT22;2136;48.502;9.194;2024-03-02T01:54:55;7.50;91.30
4245;DHT22;2136;48.502;9.194;2024-03-02T01:57:22;7.50;91.20
4245;DHT22;2136;48.502;9.194;2024-03-02T01:59:49;7.50;91.30
4245;DHT22;2136;48.502;9.194;2024-03-02T02:02:16;7.40;91.80
4245;DHT22;2136;48.502;9.194;2024-03-02T02:04:44;7.40;91.50
4245;DHT22;2136;48.502;9.194;2024-03-02T02:07:11;7.30;91.60
4245;DHT22;2136;48.502;9.194;2024-03-02T02:09:40;7.20;91.90
4245;DHT22;2136;48.502;9.194;2024-03-02T02:12:07;7.20;91.80
4245;DHT22;2136;48.502;9.194;2024-03-02T02:14:34;7.10;92.00
4245;DHT22;2136;48.502;9.194;2024-03-02T02:17:01;7.10;92.10
4245;DHT22;2136;48.502;9.194;2024-03-02T02:19:28;7.00;92.30
4245;DHT22;2136;48.502;9.194;2024-03-02T02:21:56;7.00;92.20
4245;DHT22;2136;48.502;9.194;2024-03-02T02:24:23;6.90;92.10
4245;DHT22;2136;48.502;9.194;2024-03-02T02:26:49;6.90;92.40
4245;DHT22;2136;48.502;9.194;2024-03-02T02:29:16;6.80;92.90
4245;DHT22;2136;48.502;9.194;2024-03-02T02:31:43;6.80;93.60
4245;DHT22;2136;48.502;9.194;2024-03-02T02:34:10;6.70;93.60
4245;DHT22;2136;48.502;9.194;2024-03-02T02:36:38;6.70;93.80
4245;DHT22;2136;48.502;9.194;2024-03-02T02:39:11;6.70;94.20
4245;DHT22;2136;48.502;9.194;2024-03-02T02:41:38;6.60;94.30
4245;DHT22;2136;48.502;9.194;2024-03-02T02:44:05;6.60;94.40
4245;DHT22;2136;48.502;9.194;2024-03-02T02:46:32;6.50;93.90
4245;DHT22;2136;48.502;9.194;2024-03-02T02:48:59;6.50;94.30
4245;DHT22;2136;48.502;9.194;2024-03-02T02:51:26;6.40;94.70
4245;DHT22;2136;48.502;9.194;2024-03-02T02:53:52;6.40;94.90
4245;DHT22;2136;48.502;9.194;2024-03-02T02:56:20;6.30;94.80
4245;DHT22;2136;48.502;9.194;2024-03-02T02:58:47;6.30;94.90
4245;DHT22;2136;48.502;9.194;2024-03-02T03:01:15;6.30;95.20
4245;DHT22;2136;48.502;9.194;2024-03-02T03:03:42;6.20;95.20
4245;DHT22;2136;48.502;9.194;2024-03-02T03:06:09;6.20;95.20
4245;DHT22;2136;48.502;9.194;2024-03-02T03:08:36;6.20;95.30
4245;DHT22;2136;48.502;9.194;2024-03-02T03:11:03;6.20;95.50
4245;DHT22;2136;48.502;9.194;2024-03-02T03:13:31;6.20;95.60
4245;DHT22;2136;48.502;9.194;2024-03-02T03:15:58;6.10;95.60
4245;DHT22;2136;48.502;9.194;2024-03-02T03:18:25;6.10;95.70
4245;DHT22;2136;48.502;9.194;2024-03-02T03:20:52;6.00;95.80
4245;DHT22;2136;48.502;9.194;2024-03-02T03:23:19;6.00;95.90
4245;DHT22;2136;48.502;9.194;2024-03-02T03:25:46;6.00;96.20
4245;DHT22;2136;48.502;9.194;2024-03-02T03:28:13;6.00;96.30
4245;DHT22;2136;48.502;9.194;2024-03-02T03:30:41;5.90;96.10
4245;DHT22;2136;48.502;9.194;2024-03-02T03:33:08;5.90;96.00
4245;DHT22;2136;48.502;9.194;2024-03-02T03:35:36;5.90;96.10
4245;DHT22;2136;48.502;9.194;2024-03-02T03:38:04;5.90;96.30
4245;DHT22;2136;48.502;9.194;2024-03-02T03:40:31;5.80;96.30
4245;DHT22;2136;48.502;9.194;2024-03-02T03:42:57;5.80;96.30
4245;DHT22;2136;48.502;9.194;2024-03-02T03:45:25;5.80;96.20
4245;DHT22;2136;48.502;9.194;2024-03-02T03:47:54;5.80;96.20
4245;DHT22;2136;48.502;9.194;2024-03-02T03:50:21;5.70;96.10
4245;DHT22;2136;48.502;9.194;2024-03-02T03:52:47;5.70;96.20
4245;DHT22;2136;48.502;9.194;2024-03-02T03:55:14;5.70;96.00
4245;DHT22;2136;48.502;9.194;2024-03-02T03:57:41;5.70;96.10
4245;DHT22;2136;48.502;9.194;2024-03-02T04:00:08;5.70;96.20
4245;DHT22;2136;48.502;9.194;2024-03-02T04:02:36;5.60;96.40
4245;DHT22;2136;48.502;9.194;2024-03-02T04:05:04;5.60;96.80
4245;DHT22;2136;48.502;9.194;2024-03-02T04:07:35;5.60;97.30
4245;DHT22;2136;48.502;9.194;2024-03-02T04:10:07;5.60;97.50
4245;DHT22;2136;48.502;9.194;2024-03-02T04:12:35;5.60;97.30
4245;DHT22;2136;48.502;9.194;2024-03-02T04:15:02;5.70;97.00
4245;DHT22;2136;48.502;9.194;2024-03-02T04:17:31;5.60;96.70
4245;DHT22;2136;48.502;9.194;2024-03-02T04:19:59;5.60;96.70
4245;DHT22;2136;48.502;9.194;2024-03-02T04:22:27;5.50;96.20
4245;DHT22;2136;48.502;9.194;2024-03-02T04:24:54;5.50;95.80
4245;DHT22;2136;48.502;9.194;2024-03-02T04:27:21;5.40;95.50
4245;DHT22;2136;48.502;9.194;2024-03-02T04:29:48;5.40;95.10
4245;DHT22;2136;48.502;9.194;2024-03-02T04:32:15;5.40;95.00
4245;DHT22;2136;48.502;9.194;2024-03-02T04:34:42;5.30;94.90
4245;DHT22;2136;48.502;9.194;2024-03-02T04:37:10;5.30;95.50
4245;DHT22;2136;48.502;9.194;2024-03-02T04:39:39;5.30;96.70
4245;DHT22;2136;48.502;9.194;2024-03-02T04:42:06;5.30;95.90
4245;DHT22;2136;48.502;9.194;2024-03-02T04:44:33;5.30;95.80
4245;DHT22;2136;48.502;9.194;2024-03-02T04:46:59;5.20;96.20
4245;DHT22;2136;48.502;9.194;2024-03-02T04:49:26;5.20;96.60
4245;DHT22;2136;48.502;9.194;2024-03-02T04:51:53;5.20;97.00
4245;DHT22;2136;48.502;9.194;2024-03-02T04:54:20;5.20;97.00
4245;DHT22;2136;48.502;9.194;2024-03-02T04:56:48;5.10;97.10
4245;DHT22;2136;48.502;9.194;2024-03-02T04:59:15;5.00;96.70
4245;DHT22;2136;48.502;9.194;2024-03-02T05:01:43;5.00;96.50
4245;DHT22;2136;48.502;9.194;2024-03-02T05:04:10;5.00;96.70
4245;DHT22;2136;48.502;9.194;2024-03-02T05:06:37;5.00;97.20
4245;DHT22;2136;48.502;9.194;2024-03-02T05:09:05;4.90;97.40
4245;DHT22;2136;48.502;9.194;2024-03-02T05:11:32;5.00;97.70
4245;DHT22;2136;48.502;9.194;2024-03-02T05:14:18;5.00;98.50
4245;DHT22;2136;48.502;9.194;2024-03-02T05:16:45;5.00;99.30
4245;DHT22;2136;48.502;9.194;2024-03-02T05:19:11;5.10;99.60
4245;DHT22;2136;48.502;9.194;2024-03-02T05:21:38;5.10;99.50
4245;DHT22;2136;48.502;9.194;2024-03-02T05:24:05;5.10;99.40
4245;DHT22;2136;48.502;9.194;2024-03-02T05:26:31;5.10;98.30
4245;DHT22;2136;48.502;9.194;2024-03-02T05:28:58;5.10;97.70
4245;DHT22;2136;48.502;9.194;2024-03-02T05:31:26;5.10;97.30
4245;DHT22;2136;48.502;9.194;2024-03-02T05:33:53;5.00;96.50
4245;DHT22;2136;48.502;9.194;2024-03-02T05:36:20;4.90;96.00
4245;DHT22;2136;48.502;9.194;2024-03-02T05:38:47;4.90;96.10
4245;DHT22;2136;48.502;9.194;2024-03-02T05:41:14;4.80;96.40
4245;DHT22;2136;48.502;9.194;2024-03-02T05:43:40;4.80;96.50
4245;DHT22;2136;48.502;9.194;2024-03-02T05:46:07;4.80;96.70
4245;DHT22;2136;48.502;9.194;2024-03-02T05:48:35;4.70;97.20
4245;DHT22;2136;48.502;9.194;2024-03-02T05:51:02;4.70;97.90
4245;DHT22;2136;48.502;9.194;2024-03-02T05:53:29;4.70;98.50
4245;DHT22;2136;48.502;9.194;2024-03-02T05:55:56;4.70;98.80
4245;DHT22;2136;48.502;9.194;2024-03-02T05:58:23;4.80;98.70
4245;DHT22;2136;48.502;9.194;2024-03-02T06:01:03;4.80;98.30
4245;DHT22;2136;48.502;9.194;2024-03-02T06:03:30;4.80;97.90
4245;DHT22;2136;48.502;9.194;2024-03-02T06:05:58;4.70;97.00
4245;DHT22;2136;48.502;9.194;2024-03-02T06:08:25;4.70;95.90
4245;DHT22;2136;48.502;9.194;2024-03-02T06:10:52;4.80;95.40
4245;DHT22;2136;48.502;9.194;2024-03-02T06:13:19;4.60;95.00
4245;DHT22;2136;48.502;9.194;2024-03-02T06:15:46;4.60;95.20
4245;DHT22;2136;48.502;9.194;2024-03-02T06:18:12;4.50;95.80
4245;DHT22;2136;48.502;9.194;2024-03-02T06:20:39;4.50;96.40
4245;DHT22;2136;48.502;9.194;2024-03-02T06:23:07;4.50;96.80
4245;DHT22;2136;48.502;9.194;2024-03-02T06:25:34;4.50;97.20
4245;DHT22;2136;48.502;9.194;2024-03-02T06:28:01;4.50;97.30
4245;DHT22;2136;48.502;9.194;2024-03-02T06:30:29;4.60;97.30
4245;DHT22;2136;48.502;9.194;2024-03-02T06:32:56;4.60;97.60
4245;DHT22;2136;48.502;9.194;2024-03-02T06:35:23;4.70;98.00
4245;DHT22;2136;48.502;9.194;2024-03-02T06:37:50;4.80;98.40
4245;DHT22;2136;48.502;9.194;2024-03-02T06:40:18;4.90;99.00
4245;DHT22;2136;48.502;9.194;2024-03-02T06:42:46;5.00;99.20
4245;DHT22;2136;48.502;9.194;2024-03-02T06:45:13;5.10;99.20
4245;DHT22;2136;48.502;9.194;2024-03-02T06:47:40;5.20;99.00
4245;DHT22;2136;48.502;9.194;2024-03-02T06:50:07;5.30;98.60
4245;DHT22;2136;48.502;9.194;2024-03-02T06:52:35;5.30;98.50
4245;DHT22;2136;48.502;9.194;2024-03-02T06:55:01;5.40;97.80
4245;DHT22;2136;48.502;9.194;2024-03-02T06:57:30;5.50;97.60
4245;DHT22;2136;48.502;9.194;2024-03-02T06:59:57;5.60;97.90
4245;DHT22;2136;48.502;9.194;2024-03-02T07:02:25;5.70;96.30
4245;DHT22;2136;48.502;9.194;2024-03-02T07:04:52;5.80;94.90
4245;DHT22;2136;48.502;9.194;2024-03-02T07:07:20;5.80;94.90
4245;DHT22;2136;48.502;9.194;2024-03-02T07:09:47;5.80;94.90
4245;DHT22;2136;48.502;9.194;2024-03-02T07:12:14;5.90;95.30
4245;DHT22;2136;48.502;9.194;2024-03-02T07:14:42;6.00;96.20
4245;DHT22;2136;48.502;9.194;2024-03-02T07:17:36;6.10;96.70
4245;DHT22;2136;48.502;9.194;2024-03-02T07:20:04;6.20;97.00
4245;DHT22;2136;48.502;9.194;2024-03-02T07:22:32;6.30;96.70
4245;DHT22;2136;48.502;9.194;2024-03-02T07:24:59;6.50;96.30
4245;DHT22;2136;48.502;9.194;2024-03-02T07:27:25;6.60;96.10
4245;DHT22;2136;48.502;9.194;2024-03-02T07:29:53;6.70;96.30
4245;DHT22;2136;48.502;9.194;2024-03-02T07:32:21;6.80;97.00
4245;DHT22;2136;48.502;9.194;2024-03-02T07:34:47;6.90;96.40
4245;DHT22;2136;48.502;9.194;2024-03-02T07:37:16;6.90;94.80
4245;DHT22;2136;48.502;9.194;2024-03-02T07:39:44;6.90;93.50
4245;DHT22;2136;48.502;9.194;2024-03-02T07:42:11;6.90;92.40
4245;DHT22;2136;48.502;9.194;2024-03-02T07:44:38;6.90;91.70
4245;DHT22;2136;48.502;9.194;2024-03-02T07:47:06;6.90;91.60
4245;DHT22;2136;48.502;9.194;2024-03-02T07:49:33;6.90;91.60
4245;DHT22;2136;48.502;9.194;2024-03-02T07:52:01;6.90;91.50
4245;DHT22;2136;48.502;9.194;2024-03-02T07:54:27;6.90;91.40
4245;DHT22;2136;48.502;9.194;2024-03-02T07:56:54;6.90;91.20
4245;DHT22;2136;48.502;9.194;2024-03-02T07:59:21;6.90;91.50
4245;DHT22;2136;48.502;9.194;2024-03-02T08:01:49;6.90;92.10
4245;DHT22;2136;48.502;9.194;2024-03-02T08:04:18;7.00;93.10
4245;DHT22;2136;48.502;9.194;2024-03-02T08:06:45;7.20;93.90
4245;DHT22;2136;48.502;9.194;2024-03-02T08:09:12;7.30;94.70
4245;DHT22;2136;48.502;9.194;2024-03-02T08:11:42;7.50;96.00
4245;DHT22;2136;48.502;9.194;2024-03-02T08:14:09;8.00;97.70
4245;DHT22;2136;48.502;9.194;2024-03-02T08:16:36;8.70;95.40
4245;DHT22;2136;48.502;9.194;2024-03-02T08:19:03;9.50;93.70
4245;DHT22;2136;48.502;9.194;2024-03-02T08:21:31;10.20;89.90
4245;DHT22;2136;48.502;9.194;2024-03-02T08:24:00;10.70;84.50
4245;DHT22;2136;48.502;9.194;2024-03-02T08:26:27;11.20;80.20
4245;DHT22;2136;48.502;9.194;2024-03-02T08:28:59;11.70;77.10
4245;DHT22;2136;48.502;9.194;2024-03-02T08:31:27;12.50;74.20
4245;DHT22;2136;48.502;9.194;2024-03-02T08:33:53;12.80;71.20
4245;DHT22;2136;48.502;9.194;2024-03-02T08:36:21;13.10;67.70
4245;DHT22;2136;48.502;9.194;2024-03-02T08:38:50;13.20;66.70
4245;DHT22;2136;48.502;9.194;2024-03-02T08:41:17;13.20;65.40
4245;DHT22;2136;48.502;9.194;2024-03-02T08:43:44;13.20;64.40
4245;DHT22;2136;48.502;9.194;2024-03-02T08:46:11;13.10;63.80
4245;DHT22;2136;48.502;9.194;2024-03-02T08:48:39;13.00;63.30
4245;DHT22;2136;48.502;9.194;2024-03-02T08:51:06;12.80;61.00
4245;DHT22;2136;48.502;9.194;2024-03-02T08:53:34;12.60;60.80
4245;DHT22;2136;48.502;9.194;2024-03-02T08:56:03;12.50;61.10
4245;DHT22;2136;48.502;9.194;2024-03-02T08:58:31;12.70;61.60
4245;DHT22;2136;48.502;9.194;2024-03-02T09:00:58;13.20;61.30
4245;DHT22;2136;48.502;9.194;2024-03-02T09:03:25;13.80;60.60
4245;DHT22;2136;48.502;9.194;2024-03-02T09:05:52;14.40;59.90
4245;DHT22;2136;48.502;9.194;2024-03-02T09:08:19;15.10;60.00
4245;DHT22;2136;48.502;9.194;2024-03-02T09:10:46;15.70;59.60
4245;DHT22;2136;48.502;9.194;2024-03-02T09:13:14;16.10;58.80
4245;DHT22;2136;48.502;9.194;2024-03-02T09:15:41;16.50;58.80
4245;DHT22;2136;48.502;9.194;2024-03-02T09:18:08;17.00;58.50
4245;DHT22;2136;48.502;9.194;2024-03-02T09:20:35;17.70;58.00
4245;DHT22;2136;48.502;9.194;2024-03-02T09:23:02;18.60;57.10
4245;DHT22;2136;48.502;9.194;2024-03-02T09:25:29;19.50;55.60
4245;DHT22;2136;48.502;9.194;2024-03-02T09:27:55;20.40;53.90
4245;DHT22;2136;48.502;9.194;2024-03-02T09:30:25;21.30;52.90
4245;DHT22;2136;48.502;9.194;2024-03-02T09:32:51;22.30;51.10
4245;DHT22;2136;48.502;9.194;2024-03-02T09:35:18;23.30;49.00
4245;DHT22;2136;48.502;9.194;2024-03-02T09:37:45;24.20;46.50
4245;DHT22;2136;48.502;9.194;2024-03-02T09:40:14;25.00;44.70
4245;DHT22;2136;48.502;9.194;2024-03-02T09:42:43;25.60;43.40
4245;DHT22;2136;48.502;9.194;2024-03-02T09:45:17;26.10;42.60
4245;DHT22;2136;48.502;9.194;2024-03-02T09:47:46;26.30;41.70
4245;DHT22;2136;48.502;9.194;2024-03-02T09:50:13;26.60;41.00
4245;DHT22;2136;48.502;9.194;2024-03-02T09:52:42;26.70;40.50
4245;DHT22;2136;48.502;9.194;2024-03-02T09:55:09;26.90;39.90
4245;DHT22;2136;48.502;9.194;2024-03-02T09:57:38;27.40;39.50
4245;DHT22;2136;48.502;9.194;2024-03-02T10:00:06;27.90;38.60
4245;DHT22;2136;48.502;9.194;2024-03-02T10:02:33;28.60;38.30
4245;DHT22;2136;48.502;9.194;2024-03-02T10:05:01;29.30;36.30
4245;DHT22;2136;48.502;9.194;2024-03-02T10:07:29;29.80;35.50
4245;DHT22;2136;48.502;9.194;2024-03-02T10:09:56;30.00;34.60
4245;DHT22;2136;48.502;9.194;2024-03-02T10:12:23;30.00;34.00
4245;DHT22;2136;48.502;9.194;2024-03-02T10:15:03;30.30;32.80
4245;DHT22;2136;48.502;9.194;2024-03-02T10:17:33;31.30;32.70
4245;DHT22;2136;48.502;9.194;2024-03-02T10:20:21;32.50;31.50
4245;DHT22;2136;48.502;9.194;2024-03-02T10:22:48;34.50;30.10
4245;DHT22;2136;48.502;9.194;2024-03-02T10:25:28;36.00;28.90
4245;DHT22;2136;48.502;9.194;2024-03-02T10:27:57;37.60;28.50
4245;DHT22;2136;48.502;9.194;2024-03-02T10:30:24;39.10;27.40
4245;DHT22;2136;48.502;9.194;2024-03-02T10:32:53;40.50;26.30
4245;DHT22;2136;48.502;9.194;2024-03-02T10:35:22;41.80;24.40
4245;DHT22;2136;48.502;9.194;2024-03-02T10:37:49;42.10;23.70
4245;DHT22;2136;48.502;9.194;2024-03-02T10:40:18;42.70;23.20
4245;DHT22;2136;48.502;9.194;2024-03-02T10:42:45;42.70;22.20
4245;DHT22;2136;48.502;9.194;2024-03-02T10:45:12;43.20;22.80
4245;DHT22;2136;48.502;9.194;2024-03-02T10:47:43;43.60;22.20
4245;DHT22;2136;48.502;9.194;2024-03-02T10:50:10;44.20;22.30
4245;DHT22;2136;48.502;9.194;2024-03-02T10:52:38;44.40;22.10
4245;DHT22;2136;48.502;9.194;2024-03-02T10:55:06;44.50;21.00
4245;DHT22;2136;48.502;9.194;2024-03-02T10:57:41;43.80;20.30
4245;DHT22;2136;48.502;9.194;2024-03-02T11:00:12;43.80;21.10
4245;DHT22;2136;48.502;9.194;2024-03-02T11:02:45;44.10;21.40
4245;DHT22;2136;48.502;9.194;2024-03-02T11:05:17;44.70;20.60
4245;DHT22;2136;48.502;9.194;2024-03-02T11:07:49;45.10;20.70
4245;DHT22;2136;48.502;9.194;2024-03-02T11:10:17;44.90;20.30
4245;DHT22;2136;48.502;9.194;2024-03-02T11:12:48;44.90;20.20
4245;DHT22;2136;48.502;9.194;2024-03-02T11:15:18;44.90;19.80
4245;DHT22;2136;48.502;9.194;2024-03-02T11:17:46;44.90;20.40
4245;DHT22;2136;48.502;9.194;2024-03-02T11:20:13;44.90;19.70
4245;DHT22;2136;48.502;9.194;2024-03-02T11:22:41;45.40;20.20
4245;DHT22;2136;48.502;9.194;2024-03-02T11:25:23;46.00;20.20
4245;DHT22;2136;48.502;9.194;2024-03-02T11:28:01;46.00;19.20
4245;DHT22;2136;48.502;9.194;2024-03-02T11:30:52;46.20;19.60
4245;DHT22;2136;48.502;9.194;2024-03-02T11:33:26;46.70;19.70
4245;DHT22;2136;48.502;9.194;2024-03-02T11:35:57;47.10;18.80
4245;DHT22;2136;48.502;9.194;2024-03-02T11:38:34;47.10;18.40
4245;DHT22;2136;48.502;9.194;2024-03-02T11:41:06;47.20;18.50
4245;DHT22;2136;48.502;9.194;2024-03-02T11:43:37;47.00;18.30
4245;DHT22;2136;48.502;9.194;2024-03-02T11:46:06;46.50;18.50
4245;DHT22;2136;48.502;9.194;2024-03-02T11:48:35;45.90;18.60
4245;DHT22;2136;48.502;9.194;2024-03-02T11:51:02;44.80;18.00
4245;DHT22;2136;48.502;9.194;2024-03-02T11:53:30;43.70;18.60
4245;DHT22;2136;48.502;9.194;2024-03-02T11:55:58;42.50;19.00
4245;DHT22;2136;48.502;9.194;2024-03-02T11:58:28;41.20;19.40
4245;DHT22;2136;48.502;9.194;2024-03-02T12:00:55;39.50;19.20
4245;DHT22;2136;48.502;9.194;2024-03-02T12:03:23;37.80;19.80
4245;DHT22;2136;48.502;9.194;2024-03-02T12:05:52;36.40;20.80
4245;DHT22;2136;48.502;9.194;2024-03-02T12:08:19;35.10;21.40
4245;DHT22;2136;48.502;9.194;2024-03-02T12:10:58;33.90;22.50
4245;DHT22;2136;48.502;9.194;2024-03-02T12:13:27;32.40;23.40
4245;DHT22;2136;48.502;9.194;2024-03-02T12:15:55;31.00;24.50
4245;DHT22;2136;48.502;9.194;2024-03-02T12:18:22;29.80;25.70
4245;DHT22;2136;48.502;9.194;2024-03-02T12:20:50;28.60;26.60
4245;DHT22;2136;48.502;9.194;2024-03-02T12:23:18;27.30;27.50
4245;DHT22;2136;48.502;9.194;2024-03-02T12:25:45;26.20;28.40
4245;DHT22;2136;48.502;9.194;2024-03-02T12:28:12;25.30;28.90
4245;DHT22;2136;48.502;9.194;2024-03-02T12:30:40;24.50;30.50
4245;DHT22;2136;48.502;9.194;2024-03-02T12:33:07;23.70;31.30
4245;DHT22;2136;48.502;9.194;2024-03-02T12:35:36;23.10;31.10
4245;DHT22;2136;48.502;9.194;2024-03-02T12:38:03;22.60;31.70
4245;DHT22;2136;48.502;9.194;2024-03-02T12:40:30;22.10;32.90
4245;DHT22;2136;48.502;9.194;2024-03-02T12:42:57;21.60;35.10
4245;DHT22;2136;48.502;9.194;2024-03-02T12:45:24;21.20;36.30
4245;DHT22;2136;48.502;9.194;2024-03-02T12:47:52;21.00;36.60
4245;DHT22;2136;48.502;9.194;2024-03-02T12:50:20;20.80;36.60
4245;DHT22;2136;48.502;9.194;2024-03-02T12:52:51;20.40;36.60
4245;DHT22;2136;48.502;9.194;2024-03-02T12:55:20;20.20;37.50
4245;DHT22;2136;48.502;9.194;2024-03-02T12:57:47;19.80;37.00
4245;DHT22;2136;48.502;9.194;2024-03-02T13:00:14;19.50;37.80
4245;DHT22;2136;48.502;9.194;2024-03-02T13:02:41;19.40;37.80
4245;DHT22;2136;48.502;9.194;2024-03-02T13:05:10;19.20;38.70
4245;DHT22;2136;48.502;9.194;2024-03-02T13:07:37;19.10;39.10
4245;DHT22;2136;48.502;9.194;2024-03-02T13:10:05;19.00;39.50
4245;DHT22;2136;48.502;9.194;2024-03-02T13:12:33;19.00;39.40
4245;DHT22;2136;48.502;9.194;2024-03-02T13:15:00;18.90;39.80
4245;DHT22;2136;48.502;9.194;2024-03-02T13:17:27;18.80;39.60
4245;DHT22;2136;48.502;9.194;2024-03-02T13:19:56;18.70;40.70
4245;DHT22;2136;48.502;9.194;2024-03-02T13:22:24;18.40;40.80
4245;DHT22;2136;48.502;9.194;2024-03-02T13:24:52;18.20;40.60
4245;DHT22;2136;48.502;9.194;2024-03-02T13:27:20;18.20;40.20
4245;DHT22;2136;48.502;9.194;2024-03-02T13:29:46;18.30;40.40
4245;DHT22;2136;48.502;9.194;2024-03-02T13:32:14;18.10;40.70
4245;DHT22;2136;48.502;9.194;2024-03-02T13:34:40;18.20;40.90
4245;DHT22;2136;48.502;9.194;2024-03-02T13:37:07;18.30;40.70
4245;DHT22;2136;48.502;9.194;2024-03-02T13:39:36;18.40;40.40
4245;DHT22;2136;48.502;9.194;2024-03-02T13:42:07;18.60;40.30
4245;DHT22;2136;48.502;9.194;2024-03-02T13:44:34;18.80;40.20
4245;DHT22;2136;48.502;9.194;2024-03-02T13:47:01;18.80;40.40
4245;DHT22;2136;48.502;9.194;2024-03-02T13:49:28;19.10;40.00
4245;DHT22;2136;48.502;9.194;2024-03-02T13:51:59;19.60;39.90
4245;DHT22;2136;48.502;9.194;2024-03-02T13:54:28;20.20;39.50
4245;DHT22;2136;48.502;9.194;2024-03-02T13:56:57;20.60;39.90
4245;DHT22;2136;48.502;9.194;2024-03-02T13:59:24;20.80;38.40
4245;DHT22;2136;48.502;9.194;2024-03-02T14:01:51;20.90;37.40
4245;DHT22;2136;48.502;9.194;2024-03-02T14:04:18;20.80;37.40
4245;DHT22;2136;48.502;9.194;2024-03-02T14:06:45;20.70;37.50
4245;DHT22;2136;48.502;9.194;2024-03-02T14:09:12;20.50;37.50
4245;DHT22;2136;48.502;9.194;2024-03-02T14:11:38;20.40;37.50
4245;DHT22;2136;48.502;9.194;2024-03-02T14:14:07;20.50;37.30
4245;DHT22;2136;48.502;9.194;2024-03-02T14:16:34;20.70;37.00
4245;DHT22;2136;48.502;9.194;2024-03-02T14:19:01;21.00;37.80
4245;DHT22;2136;48.502;9.194;2024-03-02T14:21:29;21.40;36.30
4245;DHT22;2136;48.502;9.194;2024-03-02T14:23:56;21.80;36.00
4245;DHT22;2136;48.502;9.194;2024-03-02T14:26:23;22.00;36.20
4245;DHT22;2136;48.502;9.194;2024-03-02T14:28:50;22.30;36.00
4245;DHT22;2136;48.502;9.194;2024-03-02T14:31:18;22.70;35.70
4245;DHT22;2136;48.502;9.194;2024-03-02T14:33:45;22.70;34.90
4245;DHT22;2136;48.502;9.194;2024-03-02T14:36:12;22.90;34.80
4245;DHT22;2136;48.502;9.194;2024-03-02T14:38:39;22.70;34.30
4245;DHT22;2136;48.502;9.194;2024-03-02T14:41:06;22.40;33.40
4245;DHT22;2136;48.502;9.194;2024-03-02T14:43:33;22.10;33.60
4245;DHT22;2136;48.502;9.194;2024-03-02T14:45:59;21.80;33.20
4245;DHT22;2136;48.502;9.194;2024-03-02T14:48:27;21.60;33.10
4245;DHT22;2136;48.502;9.194;2024-03-02T14:50:54;21.60;33.50
4245;DHT22;2136;48.502;9.194;2024-03-02T14:53:21;21.60;33.80
4245;DHT22;2136;48.502;9.194;2024-03-02T14:55:48;21.90;34.20
4245;DHT22;2136;48.502;9.194;2024-03-02T14:58:15;22.10;33.80
4245;DHT22;2136;48.502;9.194;2024-03-02T15:00:42;21.70;32.60
4245;DHT22;2136;48.502;9.194;2024-03-02T15:03:09;21.80;32.80
4245;DHT22;2136;48.502;9.194;2024-03-02T15:05:38;21.70;33.10
4245;DHT22;2136;48.502;9.194;2024-03-02T15:08:06;21.30;33.50
4245;DHT22;2136;48.502;9.194;2024-03-02T15:10:33;20.90;33.30
4245;DHT22;2136;48.502;9.194;2024-03-02T15:13:00;20.70;33.00
4245;DHT22;2136;48.502;9.194;2024-03-02T15:15:27;20.30;33.00
4245;DHT22;2136;48.502;9.194;2024-03-02T15:17:53;20.00;33.80
4245;DHT22;2136;48.502;9.194;2024-03-02T15:20:20;19.60;33.30
4245;DHT22;2136;48.502;9.194;2024-03-02T15:22:48;19.30;33.50
4245;DHT22;2136;48.502;9.194;2024-03-02T15:25:15;19.00;33.10
4245;DHT22;2136;48.502;9.194;2024-03-02T15:27:42;18.50;32.00
4245;DHT22;2136;48.502;9.194;2024-03-02T15:30:09;18.40;32.50
4245;DHT22;2136;48.502;9.194;2024-03-02T15:32:36;18.20;33.00
4245;DHT22;2136;48.502;9.194;2024-03-02T15:35:04;17.90;33.10
4245;DHT22;2136;48.502;9.194;2024-03-02T15:37:31;17.70;33.40
4245;DHT22;2136;48.502;9.194;2024-03-02T15:40:00;17.50;33.00
4245;DHT22;2136;48.502;9.194;2024-03-02T15:42:31;17.30;33.70
4245;DHT22;2136;48.502;9.194;2024-03-02T15:44:58;17.10;33.90
4245;DHT22;2136;48.502;9.194;2024-03-02T15:47:25;17.00;34.60
4245;DHT22;2136;48.502;9.194;2024-03-02T15:49:52;16.90;35.10
4245;DHT22;2136;48.502;9.194;2024-03-02T15:52:19;16.80;35.20
4245;DHT22;2136;48.502;9.194;2024-03-02T15:54:46;16.70;35.50
4245;DHT22;2136;48.502;9.194;2024-03-02T15:57:15;16.60;36.60
4245;DHT22;2136;48.502;9.194;2024-03-02T15:59:42;16.50;36.60
4245;DHT22;2136;48.502;9.194;2024-03-02T16:02:09;16.50;37.30
4245;DHT22;2136;48.502;9.194;2024-03-02T16:04:36;16.40;37.90
4245;DHT22;2136;48.502;9.194;2024-03-02T16:07:03;16.30;38.60
4245;DHT22;2136;48.502;9.194;2024-03-02T16:09:30;16.40;38.70
4245;DHT22;2136;48.502;9.194;2024-03-02T16:11:56;16.30;40.00
4245;DHT22;2136;48.502;9.194;2024-03-02T16:14:25;16.10;41.30